WJA601 KLAX-KLAS
Flight info
| Callsign | WJA601 |
|---|---|
| Flight time | N/A |
| Altitude | 29000 |
| Route | ORCKA5 MISEN RNDRZ4 |
| Aircraft | B738/M-SDE2E3FGHIRWXY/LB1 |
Departure
| Time | 2026-05-07 23:49 |
|---|---|
| Airport | Los Angeles International Airport (KLAX) |
Arrival
| Time | N/A |
|---|---|
| Airport | Harry Reid International Airport (KLAS) |
| Time | Latitude | Longitude | Altitude | Speed | Heading |
|---|---|---|---|---|---|
| 2026-05-07 23:00 | 33.94695 | -118.40475 | 135 ft | 0 kts | 115° |
| 2026-05-07 23:22 | 33.94699 | -118.40486 | 135 ft | 2 kts | 112° |
| 2026-05-07 23:22 | 33.94704 | -118.40507 | 135 ft | 3 kts | 98° |
| 2026-05-07 23:22 | 33.94704 | -118.40531 | 135 ft | 3 kts | 81° |
| 2026-05-07 23:22 | 33.94698 | -118.40554 | 135 ft | 3 kts | 64° |
| 2026-05-07 23:23 | 33.94687 | -118.40575 | 135 ft | 3 kts | 47° |
| 2026-05-07 23:23 | 33.94681 | -118.40582 | 135 ft | 0 kts | 41° |
| 2026-05-07 23:32 | 33.94693 | -118.40569 | 135 ft | 0 kts | 41° |
| 2026-05-07 23:33 | 33.94716 | -118.40564 | 135 ft | 7 kts | 4° |
| 2026-05-07 23:33 | 33.94770 | -118.40585 | 135 ft | 5 kts | 322° |
| 2026-05-07 23:34 | 33.94780 | -118.40609 | 135 ft | 4 kts | 278° |
| 2026-05-07 23:34 | 33.94777 | -118.40688 | 135 ft | 15 kts | 262° |
| 2026-05-07 23:34 | 33.94757 | -118.40846 | 135 ft | 15 kts | 266° |
| 2026-05-07 23:34 | 33.94744 | -118.40984 | 135 ft | 16 kts | 262° |
| 2026-05-07 23:35 | 33.94732 | -118.41096 | 135 ft | 11 kts | 262° |
| 2026-05-07 23:35 | 33.94726 | -118.41161 | 135 ft | 3 kts | 270° |
| 2026-05-07 23:35 | 33.94726 | -118.41191 | 135 ft | 5 kts | 269° |
| 2026-05-07 23:35 | 33.94726 | -118.41239 | 135 ft | 10 kts | 270° |
| 2026-05-07 23:36 | 33.94732 | -118.41297 | 135 ft | 9 kts | 285° |
| 2026-05-07 23:36 | 33.94741 | -118.41345 | 135 ft | 0 kts | 277° |
| 2026-05-07 23:36 | 33.94738 | -118.41430 | 135 ft | 19 kts | 248° |
| 2026-05-07 23:36 | 33.94680 | -118.41516 | 135 ft | 6 kts | 222° |
| 2026-05-07 23:37 | 33.94628 | -118.41571 | 135 ft | 8 kts | 243° |
| 2026-05-07 23:37 | 33.94618 | -118.41626 | 135 ft | 7 kts | 260° |
| 2026-05-07 23:37 | 33.94600 | -118.41673 | 135 ft | 8 kts | 235° |
| 2026-05-07 23:37 | 33.94564 | -118.41711 | 135 ft | 8 kts | 208° |
| 2026-05-07 23:38 | 33.94526 | -118.41795 | 135 ft | 13 kts | 263° |
| 2026-05-07 23:38 | 33.94535 | -118.41874 | 135 ft | 8 kts | 306° |
| 2026-05-07 23:38 | 33.94578 | -118.41916 | 135 ft | 6 kts | 303° |
| 2026-05-07 23:38 | 33.94573 | -118.41959 | 135 ft | 8 kts | 217° |
| 2026-05-07 23:39 | 33.94472 | -118.41992 | 135 ft | 15 kts | 185° |
| 2026-05-07 23:39 | 33.94371 | -118.41875 | 135 ft | 30 kts | 116° |
| 2026-05-07 23:39 | 33.94268 | -118.41740 | 135 ft | 16 kts | 160° |
| 2026-05-07 23:39 | 33.94164 | -118.41730 | 135 ft | 19 kts | 181° |
| 2026-05-07 23:40 | 33.94016 | -118.41744 | 135 ft | 16 kts | 187° |
| 2026-05-07 23:40 | 33.93917 | -118.41755 | 135 ft | 13 kts | 188° |
| 2026-05-07 23:40 | 33.93850 | -118.41765 | 135 ft | 3 kts | 186° |
| 2026-05-07 23:40 | 33.93832 | -118.41765 | 135 ft | 6 kts | 174° |
| 2026-05-07 23:41 | 33.93792 | -118.41666 | 135 ft | 15 kts | 83° |
| 2026-05-07 23:41 | 33.93784 | -118.41581 | 135 ft | 10 kts | 135° |
| 2026-05-07 23:41 | 33.93732 | -118.41511 | 135 ft | 19 kts | 95° |
| 2026-05-07 23:41 | 33.93750 | -118.41298 | 135 ft | 25 kts | 83° |
| 2026-05-07 23:42 | 33.93769 | -118.41119 | 135 ft | 20 kts | 84° |
| 2026-05-07 23:42 | 33.93784 | -118.40966 | 135 ft | 19 kts | 84° |
| 2026-05-07 23:42 | 33.93802 | -118.40790 | 135 ft | 24 kts | 84° |
| 2026-05-07 23:42 | 33.93822 | -118.40587 | 135 ft | 24 kts | 84° |
| 2026-05-07 23:43 | 33.93843 | -118.40394 | 135 ft | 23 kts | 82° |
| 2026-05-07 23:43 | 33.93862 | -118.40204 | 135 ft | 23 kts | 82° |
| 2026-05-07 23:43 | 33.93881 | -118.40017 | 135 ft | 22 kts | 83° |
| 2026-05-07 23:43 | 33.93900 | -118.39831 | 135 ft | 22 kts | 84° |
| 2026-05-07 23:44 | 33.93921 | -118.39646 | 135 ft | 22 kts | 82° |
| 2026-05-07 23:44 | 33.93939 | -118.39474 | 135 ft | 21 kts | 84° |
| 2026-05-07 23:44 | 33.93953 | -118.39300 | 135 ft | 23 kts | 83° |
| 2026-05-07 23:44 | 33.93975 | -118.39101 | 135 ft | 25 kts | 83° |
| 2026-05-07 23:45 | 33.93969 | -118.39017 | 135 ft | 4 kts | 141° |
| 2026-05-07 23:45 | 33.93966 | -118.39015 | 135 ft | 0 kts | 148° |
| 2026-05-07 23:48 | 33.93960 | -118.39011 | 135 ft | 6 kts | 149° |
| 2026-05-07 23:48 | 33.93896 | -118.39026 | 135 ft | 15 kts | 237° |
| 2026-05-07 23:48 | 33.93863 | -118.39305 | 135 ft | 66 kts | 264° |
| 2026-05-07 23:48 | 33.93774 | -118.40143 | 137 ft | 134 kts | 263° |
| 2026-05-07 23:49 | 33.93636 | -118.41428 | 535 ft | 169 kts | 263° |
| 2026-05-07 23:49 | 33.93569 | -118.42872 | 1453 ft | 181 kts | 268° |
| 2026-05-07 23:49 | 33.93552 | -118.44496 | 2172 ft | 205 kts | 269° |
| 2026-05-07 23:49 | 33.93522 | -118.46280 | 2989 ft | 219 kts | 267° |
| 2026-05-07 23:50 | 33.93104 | -118.48076 | 3796 ft | 234 kts | 235° |
| 2026-05-07 23:50 | 33.91789 | -118.49294 | 4528 ft | 250 kts | 203° |
| 2026-05-07 23:50 | 33.90266 | -118.50210 | 5707 ft | 244 kts | 204° |
| 2026-05-07 23:50 | 33.88666 | -118.50467 | 7052 ft | 226 kts | 171° |
| 2026-05-07 23:51 | 33.87047 | -118.49955 | 7279 ft | 255 kts | 171° |
| 2026-05-07 23:51 | 33.85275 | -118.49586 | 7021 ft | 263 kts | 166° |
| 2026-05-07 23:51 | 33.83736 | -118.48467 | 6684 ft | 266 kts | 133° |
| 2026-05-07 23:51 | 33.82945 | -118.46505 | 6347 ft | 263 kts | 99° |
| 2026-05-07 23:52 | 33.83183 | -118.44367 | 6009 ft | 260 kts | 65° |
| 2026-05-07 23:52 | 33.84372 | -118.42807 | 5872 ft | 256 kts | 29° |
| 2026-05-07 23:52 | 33.85925 | -118.41676 | 5763 ft | 259 kts | 37° |
| 2026-05-07 23:52 | 33.87367 | -118.40493 | 6353 ft | 252 kts | 34° |
| 2026-05-07 23:53 | 33.88735 | -118.39267 | 7587 ft | 236 kts | 42° |
| 2026-05-07 23:53 | 33.89937 | -118.37935 | 8657 ft | 235 kts | 46° |
| 2026-05-07 23:53 | 33.90967 | -118.36470 | 9760 ft | 224 kts | 55° |
| 2026-05-07 23:53 | 33.91916 | -118.34950 | 10480 ft | 239 kts | 61° |